Time;durP1;ratioP1;P1;durP2;ratioP2;P2;SDS_P1;SDS_P2;PMS_P1;PMS_P2;Temp;Humidity;BMP_temperature;BMP_pressure;BME280_temperature;BME280_humidity;BME280_pressure;Samples;Min_cycle;Max_cycle;Signal;HPM_P1;HPM_P2
2023/06/01 00:01:46;;;;;;;0.57;0.40;;;11.80;1.00;;;;;;4975845;28;20305;-95
2023/06/01 00:04:13;;;;;;;0.30;0.30;;;11.70;1.00;;;;;;4995028;28;20050;-95
2023/06/01 00:06:39;;;;;;;0.70;0.70;;;11.70;1.00;;;;;;4995646;28;20058;-95
2023/06/01 00:09:05;;;;;;;0.60;0.60;;;11.70;1.00;;;;;;4978791;28;20061;-95
2023/06/01 00:11:31;;;;;;;0.40;0.40;;;11.70;1.00;;;;;;5011073;28;20053;-94
2023/06/01 00:13:57;;;;;;;0.60;0.47;;;11.70;1.00;;;;;;4998480;28;20064;-95
2023/06/01 00:16:23;;;;;;;1.08;0.35;;;11.70;1.00;;;;;;5014056;28;20048;-95
2023/06/01 00:18:55;;;;;;;0.73;0.55;;;11.70;1.00;;;;;;5014549;28;20045;-96
2023/06/01 00:21:21;;;;;;;0.50;0.40;;;11.70;1.00;;;;;;5012880;28;20050;-96
2023/06/01 00:23:47;;;;;;;0.93;0.33;;;11.70;1.00;;;;;;5000207;28;20039;-96
2023/06/01 00:26:13;;;;;;;0.70;0.52;;;11.70;1.00;;;;;;4994737;28;20289;-94
2023/06/01 00:28:39;;;;;;;0.90;0.65;;;11.80;1.00;;;;;;4977835;28;20065;-96
2023/06/01 00:31:05;;;;;;;0.70;0.50;;;11.80;1.00;;;;;;4980867;28;20038;-94
2023/06/01 00:33:31;;;;;;;0.65;0.65;;;11.80;1.00;;;;;;5013311;28;20502;-95
2023/06/01 00:35:57;;;;;;;0.30;0.27;;;11.70;1.00;;;;;;4996537;28;20065;-94
2023/06/01 00:38:22;;;;;;;0.50;0.50;;;11.70;1.00;;;;;;4983811;28;20054;-95
2023/06/01 00:40:50;;;;;;;0.53;0.50;;;11.70;1.00;;;;;;4961216;28;20077;-96
2023/06/01 00:43:16;;;;;;;0.22;0.22;;;11.60;1.00;;;;;;4978781;28;20057;-95
2023/06/01 00:45:42;;;;;;;1.70;0.60;;;11.60;1.00;;;;;;4978347;28;20054;-94
2023/06/01 00:48:08;;;;;;;0.53;0.53;;;11.50;1.00;;;;;;4978433;28;20050;-96
2023/06/01 00:50:34;;;;;;;0.40;0.40;;;11.60;1.00;;;;;;4977117;28;20061;-95
2023/06/01 00:53:02;;;;;;;0.60;0.40;;;11.50;1.00;;;;;;4995951;28;20050;-96
2023/06/01 00:55:28;;;;;;;0.30;0.30;;;11.50;1.00;;;;;;4993408;28;20101;-96
2023/06/01 00:57:55;;;;;;;0.73;0.45;;;11.50;1.00;;;;;;4975895;28;20054;-95
2023/06/01 01:00:22;;;;;;;1.13;0.75;;;11.50;1.00;;;;;;4976911;28;20046;-96
2023/06/01 01:02:49;;;;;;;4.85;0.40;;;11.50;1.00;;;;;;4994908;28;20382;-96
2023/06/01 01:05:16;;;;;;;0.40;0.40;;;11.50;1.00;;;;;;4976654;28;20133;-95
2023/06/01 01:07:53;;;;;;;3.17;0.55;;;11.50;1.00;;;;;;4993610;28;20057;-95
2023/06/01 01:10:29;;;;;;;0.25;0.25;;;11.50;1.00;;;;;;4993206;28;20405;-95
2023/06/01 01:13:16;;;;;;;0.50;0.50;;;11.50;1.00;;;;;;4994414;28;20081;-96
2023/06/01 01:16:21;;;;;;;0.60;0.52;;;11.50;1.00;;;;;;5013758;28;20496;-95
2023/06/01 01:18:56;;;;;;;0.22;0.22;;;11.40;1.00;;;;;;4992983;28;20057;-96
2023/06/01 01:21:29;;;;;;;1.13;0.50;;;11.40;1.00;;;;;;5000745;28;20047;-96
2023/06/01 01:24:23;;;;;;;0.73;0.60;;;11.40;1.00;;;;;;4984728;28;20133;-96
2023/06/01 01:27:10;;;;;;;1.70;0.40;;;11.30;1.00;;;;;;4990605;28;20086;-96
2023/06/01 01:29:40;;;;;;;1.00;0.85;;;11.40;1.00;;;;;;5007928;28;20042;-96
2023/06/01 01:32:10;;;;;;;0.63;0.57;;;11.40;1.00;;;;;;5008539;28;20034;-96
2023/06/01 01:34:40;;;;;;;0.43;0.30;;;11.40;1.00;;;;;;4982968;28;20054;-96
2023/06/01 01:37:08;;;;;;;0.63;0.50;;;10.40;1.00;;;;;;4991461;28;20056;-96
2023/06/01 01:39:37;;;;;;;0.40;0.40;;;11.20;1.00;;;;;;5024439;28;20058;-96
2023/06/01 01:42:08;;;;;;;0.75;0.50;;;11.20;1.00;;;;;;5030426;28;20132;-96
2023/06/01 01:44:38;;;;;;;0.55;0.35;;;11.50;1.00;;;;;;5031838;28;20126;-96
2023/06/01 01:47:30;;;;;;;0.52;0.40;;;10.90;1.00;;;;;;5015087;28;20049;-96
2023/06/01 01:50:07;;;;;;;0.68;0.68;;;11.30;1.00;;;;;;4980770;28;20055;-96
2023/06/01 01:52:42;;;;;;;0.43;0.30;;;11.40;1.00;;;;;;4995448;28;20050;-96
2023/06/01 01:55:09;;;;;;;0.60;0.60;;;11.00;1.00;;;;;;5004243;28;20046;-96
2023/06/01 01:57:36;;;;;;;1.88;0.93;;;11.20;1.00;;;;;;4990802;28;20046;-96
2023/06/01 02:00:11;;;;;;;0.38;0.30;;;11.30;1.00;;;;;;5010636;28;20045;-96
2023/06/01 02:02:42;;;;;;;1.08;0.60;;;11.20;1.00;;;;;;5004966;28;20042;-96
2023/06/01 02:05:08;;;;;;;1.10;0.75;;;10.80;1.00;;;;;;5004667;28;20058;-95
2023/06/01 02:07:34;;;;;;;0.53;0.30;;;11.20;1.00;;;;;;4983445;28;20050;-95
2023/06/01 02:10:00;;;;;;;0.50;0.45;;;11.10;1.00;;;;;;5002769;28;20307;-96
2023/06/01 02:12:26;;;;;;;0.60;0.60;;;11.10;1.00;;;;;;4969882;28;20050;-96
2023/06/01 02:14:56;;;;;;;0.33;0.33;;;11.20;1.00;;;;;;5004149;28;20388;-96
2023/06/01 02:17:25;;;;;;;0.57;0.50;;;11.10;1.00;;;;;;4985244;28;20046;-96
2023/06/01 02:19:57;;;;;;;1.02;0.28;;;11.90;1.00;;;;;;4984515;28;20074;-96
2023/06/01 02:22:23;;;;;;;0.60;0.60;;;11.20;1.00;;;;;;5000391;28;20259;-96
2023/06/01 02:24:51;;;;;;;0.67;0.67;;;11.20;1.00;;;;;;4984778;28;20060;-96
2023/06/01 02:27:17;;;;;;;0.22;0.22;;;11.90;1.00;;;;;;5001158;28;20042;-96
2023/06/01 02:29:45;;;;;;;0.63;0.60;;;11.20;1.00;;;;;;4999851;28;20131;-96
2023/06/01 02:32:30;;;;;;;0.98;0.52;;;11.20;1.00;;;;;;4999123;28;20042;-96
2023/06/01 02:35:07;;;;;;;0.90;0.60;;;11.20;1.00;;;;;;5005707;28;20098;-96
2023/06/01 02:37:33;;;;;;;0.73;0.40;;;11.00;1.00;;;;;;4988948;28;20077;-96
2023/06/01 02:39:59;;;;;;;0.40;0.40;;;11.20;1.00;;;;;;5008462;28;20050;-96
2023/06/01 02:42:28;;;;;;;0.25;0.25;;;11.20;1.00;;;;;;5005066;28;20129;-96
2023/06/01 02:44:59;;;;;;;0.82;0.50;;;10.50;1.00;;;;;;5011651;28;20050;-96
2023/06/01 02:47:28;;;;;;;0.77;0.52;;;11.30;1.00;;;;;;5003791;28;20046;-96
2023/06/01 02:49:54;;;;;;;0.43;0.43;;;11.20;1.00;;;;;;4981157;28;20133;-96
2023/06/01 02:52:20;;;;;;;0.20;0.20;;;11.20;1.00;;;;;;4996045;28;20302;-96
2023/06/01 02:54:45;;;;;;;0.50;0.40;;;11.10;1.00;;;;;;4996962;28;20046;-96
2023/06/01 02:57:11;;;;;;;0.80;0.80;;;11.10;1.00;;;;;;5003244;28;20367;-96
2023/06/01 02:59:37;;;;;;;0.63;0.63;;;11.20;1.00;;;;;;5015932;28;20056;-96
2023/06/01 03:02:03;;;;;;;1.20;0.80;;;11.10;1.00;;;;;;4999199;28;20263;-96
2023/06/01 03:04:32;;;;;;;0.52;0.52;;;11.10;1.00;;;;;;4995688;28;20484;-96
2023/06/01 03:07:01;;;;;;;0.40;0.40;;;11.10;1.00;;;;;;4998495;28;20058;-95
2023/06/01 03:09:30;;;;;;;0.32;0.32;;;11.10;1.00;;;;;;5016020;28;20041;-96
2023/06/01 03:11:56;;;;;;;0.85;0.43;;;11.10;1.00;;;;;;5000514;28;20046;-96
2023/06/01 03:14:24;;;;;;;0.47;0.40;;;11.10;1.00;;;;;;5019236;28;20053;-96
2023/06/01 03:16:52;;;;;;;1.27;0.68;;;11.00;1.00;;;;;;5021850;28;20050;-96
2023/06/01 03:19:18;;;;;;;1.25;1.05;;;11.10;1.00;;;;;;5016412;28;20121;-96
2023/06/01 03:21:47;;;;;;;0.20;0.20;;;11.00;1.00;;;;;;5003180;28;20496;-96
2023/06/01 03:24:19;;;;;;;0.77;0.68;;;11.10;1.00;;;;;;5000420;28;20050;-95
2023/06/01 03:26:45;;;;;;;0.30;0.30;;;11.10;1.00;;;;;;4984349;28;20493;-95
2023/06/01 03:29:13;;;;;;;0.57;0.40;;;11.00;1.00;;;;;;4966824;28;20054;-96
2023/06/01 03:31:39;;;;;;;0.45;0.45;;;10.50;1.00;;;;;;4979739;28;20049;-96
2023/06/01 03:34:20;;;;;;;0.35;0.35;;;11.00;1.00;;;;;;5020217;28;20046;-96
2023/06/01 03:36:47;;;;;;;0.40;0.40;;;11.10;1.00;;;;;;4994503;28;20057;-96
2023/06/01 03:39:20;;;;;;;0.75;0.40;;;11.10;1.00;;;;;;5007938;28;20066;-96
2023/06/01 03:41:49;;;;;;;0.40;0.40;;;11.00;1.00;;;;;;4995681;28;20104;-96
2023/06/01 03:44:18;;;;;;;2.60;0.60;;;11.10;1.00;;;;;;5030560;28;20050;-96
2023/06/01 03:46:51;;;;;;;0.30;0.30;;;10.90;1.00;;;;;;5009057;28;20046;-96
2023/06/01 03:49:23;;;;;;;1.00;0.63;;;10.80;1.00;;;;;;5018924;28;20057;-96
2023/06/01 03:51:59;;;;;;;0.57;0.30;;;11.10;1.00;;;;;;4996336;28;20058;-96
2023/06/01 03:54:30;;;;;;;0.37;0.37;;;11.70;1.00;;;;;;5024414;28;20030;-92
2023/06/01 03:59:34;;;;;;;0.75;0.50;;;11.20;1.00;;;;;;5376665;23;20056;-96
2023/06/01 04:02:16;;;;;;;1.52;0.38;;;11.00;1.00;;;;;;5019854;28;20046;-96
2023/06/01 04:07:21;;;;;;;0.47;0.38;;;11.20;1.00;;;;;;4909268;22;20065;-96
2023/06/01 04:13:16;;;;;;;0.50;0.47;;;11.30;1.00;;;;;;5408591;23;20290;-96
2023/06/01 04:15:51;;;;;;;;;;;;;;;;;;;;;
2023/06/01 04:27:18;;;;;;;1.50;0.63;;;11.30;1.00;;;;;;5605258;24;20024;-95
2023/06/01 04:29:48;;;;;;;0.47;0.35;;;10.90;1.00;;;;;;4988713;24;20045;-92
2023/06/01 04:32:23;;;;;;;0.25;0.25;;;11.30;1.00;;;;;;4867216;29;20083;-96
2023/06/01 04:34:52;;;;;;;0.70;0.38;;;11.30;1.00;;;;;;4836275;29;20052;-96
2023/06/01 04:37:28;;;;;;;0.30;0.30;;;11.20;1.00;;;;;;4875554;29;20054;-96
2023/06/01 04:39:53;;;;;;;0.50;0.50;;;11.30;1.00;;;;;;4838314;29;20053;-96
2023/06/01 04:42:21;;;;;;;0.50;0.30;;;11.20;1.00;;;;;;4856442;29;20185;-96
2023/06/01 04:44:49;;;;;;;0.30;0.30;;;11.10;1.00;;;;;;4837954;29;20230;-96
2023/06/01 04:47:20;;;;;;;0.45;0.45;;;11.10;1.00;;;;;;4877786;29;20089;-96
2023/06/01 04:49:48;;;;;;;0.63;0.47;;;11.10;1.00;;;;;;4868514;29;20049;-95
2023/06/01 04:52:14;;;;;;;0.63;0.40;;;11.10;1.00;;;;;;4870937;29;20060;-96
2023/06/01 04:54:40;;;;;;;1.03;0.50;;;11.10;1.00;;;;;;4873605;29;20049;-96
2023/06/01 04:57:06;;;;;;;0.45;0.20;;;11.10;1.00;;;;;;4859084;29;20501;-96
2023/06/01 04:59:38;;;;;;;0.25;0.25;;;11.10;1.00;;;;;;4852119;29;20121;-96
2023/06/01 05:02:04;;;;;;;0.65;0.52;;;11.10;6.50;;;;;;4834825;29;20116;-96
2023/06/01 05:04:34;;;;;;;0.17;0.17;;;11.10;1.00;;;;;;4840361;29;20065;-96
2023/06/01 05:07:01;;;;;;;0.73;0.68;;;11.10;1.70;;;;;;4848062;29;20049;-96
2023/06/01 05:09:30;;;;;;;0.50;0.40;;;11.10;1.00;;;;;;4852823;29;21686;-96
2023/06/01 05:11:56;;;;;;;0.38;0.22;;;11.10;3.20;;;;;;4874547;29;20064;-96
2023/06/01 05:14:24;;;;;;;0.33;0.33;;;11.10;1.00;;;;;;4845868;29;20045;-96
2023/06/01 05:16:56;;;;;;;0.60;0.40;;;11.80;1.00;;;;;;4855206;29;20050;-93
2023/06/01 05:19:26;;;;;;;0.20;0.20;;;10.80;1.00;;;;;;4842243;29;20081;-96
2023/06/01 05:21:55;;;;;;;0.30;0.22;;;10.60;1.00;;;;;;4836671;29;20052;-95
2023/06/01 05:24:21;;;;;;;1.95;0.30;;;11.10;1.50;;;;;;4851126;29;20050;-96
2023/06/01 05:26:46;;;;;;;0.40;0.40;;;11.10;3.00;;;;;;4837819;29;20057;-96
2023/06/01 05:29:15;;;;;;;0.30;0.13;;;11.10;7.70;;;;;;4856605;29;20061;-96
2023/06/01 05:31:50;;;;;;;0.57;0.57;;;11.20;1.60;;;;;;4858316;29;20054;-96
2023/06/01 05:34:22;;;;;;;0.30;0.30;;;11.20;1.00;;;;;;4843788;29;20045;-96
2023/06/01 05:36:48;;;;;;;0.40;0.35;;;11.90;11.90;;;;;;4853031;29;20041;-96
2023/06/01 05:39:15;;;;;;;0.35;0.20;;;11.20;5.70;;;;;;4851484;29;20049;-96
2023/06/01 05:41:41;;;;;;;0.80;0.50;;;11.20;9.80;;;;;;4840168;29;20049;-96
2023/06/01 05:44:07;;;;;;;0.30;0.30;;;11.20;16.20;;;;;;4850398;29;20085;-96
2023/06/01 05:46:33;;;;;;;0.30;0.30;;;10.40;21.30;;;;;;4855504;29;20102;-95
2023/06/01 05:49:00;;;;;;;0.20;0.20;;;11.20;22.00;;;;;;4851989;29;20064;-96
2023/06/01 05:51:28;;;;;;;;;;;11.30;26.40;;;;;;4852541;29;20057;-96
2023/06/01 05:53:53;;;;;;;;;;;11.20;70.20;;;;;;4853349;29;19927;-93
2023/06/01 05:56:24;;;;;;;0.55;0.55;;;11.20;86.30;;;;;;4850892;29;19931;-94
2023/06/01 05:58:52;;;;;;;0.70;0.65;;;11.20;61.70;;;;;;4853330;29;20084;-96
2023/06/01 06:01:19;;;;;;;0.85;0.38;;;11.20;56.60;;;;;;4849432;29;20061;-88
2023/06/01 06:03:45;;;;;;;0.28;0.28;;;11.20;60.00;;;;;;4836188;29;20060;-92
2023/06/01 06:06:11;;;;;;;0.38;0.25;;;11.20;60.20;;;;;;4861685;29;20053;-94
2023/06/01 06:08:37;;;;;;;1.77;0.65;;;11.30;55.00;;;;;;4868812;29;20123;-94
2023/06/01 06:11:02;;;;;;;0.93;0.93;;;11.30;63.80;;;;;;4868536;29;20477;-95
2023/06/01 06:13:28;;;;;;;0.27;0.27;;;11.30;46.80;;;;;;4884390;29;20120;-94
2023/06/01 06:15:55;;;;;;;0.30;0.30;;;11.30;46.20;;;;;;4868063;29;20053;-92
2023/06/01 06:18:21;;;;;;;0.50;0.50;;;11.30;50.40;;;;;;4861861;29;20195;-93
2023/06/01 06:20:47;;;;;;;1.00;0.35;;;11.40;60.20;;;;;;4856065;29;20588;-92
2023/06/01 06:23:12;;;;;;;0.60;0.23;;;11.40;53.10;;;;;;4882262;29;20153;-93
2023/06/01 06:25:40;;;;;;;0.77;0.40;;;11.40;61.30;;;;;;4885103;29;20308;-93
2023/06/01 06:28:06;;;;;;;0.20;0.20;;;11.30;55.70;;;;;;4867286;29;20049;-90
2023/06/01 06:30:32;;;;;;;0.43;0.43;;;11.40;35.60;;;;;;4850137;29;20087;-88
2023/06/01 06:32:58;;;;;;;0.30;0.30;;;11.40;47.40;;;;;;4848766;29;20879;-86
2023/06/01 06:35:23;;;;;;;0.30;0.30;;;11.50;54.60;;;;;;4829084;29;20053;-85
2023/06/01 06:37:49;;;;;;;0.30;0.23;;;11.50;58.00;;;;;;4850497;29;20083;-85
2023/06/01 06:40:17;;;;;;;0.50;0.40;;;11.50;54.30;;;;;;4865227;29;20118;-86
2023/06/01 06:42:43;;;;;;;0.43;0.35;;;11.50;71.30;;;;;;4846855;29;20060;-87
2023/06/01 06:45:10;;;;;;;0.25;0.25;;;11.60;66.20;;;;;;4862674;29;20143;-88
2023/06/01 06:47:36;;;;;;;0.45;0.30;;;11.60;69.00;;;;;;4868198;29;20542;-91
2023/06/01 06:50:02;;;;;;;0.63;0.40;;;11.60;56.10;;;;;;4846691;29;20137;-89
2023/06/01 06:52:28;;;;;;;0.10;0.10;;;11.60;65.10;;;;;;4847646;29;20132;-92
2023/06/01 06:54:53;;;;;;;0.10;0.10;;;11.60;74.90;;;;;;4846626;29;20108;-93
2023/06/01 06:57:19;;;;;;;0.63;0.40;;;11.60;71.00;;;;;;4846207;29;20100;-87
2023/06/01 06:59:45;;;;;;;0.10;0.10;;;11.60;72.30;;;;;;4866760;29;20053;-93
2023/06/01 07:02:10;;;;;;;0.40;0.40;;;11.60;68.10;;;;;;4861698;29;20488;-94
2023/06/01 07:04:36;;;;;;;0.43;0.20;;;11.60;74.90;;;;;;4871826;29;20056;-93
2023/06/01 07:07:04;;;;;;;0.28;0.28;;;11.70;76.40;;;;;;4866457;29;20045;-95
2023/06/01 07:09:30;;;;;;;0.10;0.10;;;11.70;67.30;;;;;;4852433;29;20055;-95
2023/06/01 07:11:55;;;;;;;0.10;0.10;;;11.70;55.20;;;;;;4869230;29;20057;-92
2023/06/01 07:14:21;;;;;;;1.23;0.50;;;11.70;45.50;;;;;;4840304;29;20398;-95
2023/06/01 07:16:47;;;;;;;0.53;0.20;;;11.70;48.20;;;;;;4865819;29;20046;-94
2023/06/01 07:19:13;;;;;;;5.03;0.43;;;11.80;47.10;;;;;;4850982;29;20072;-96
2023/06/01 07:21:39;;;;;;;0.20;0.20;;;11.80;47.80;;;;;;4848912;29;20119;-95
2023/06/01 07:24:05;;;;;;;0.30;0.30;;;11.90;36.70;;;;;;4860691;29;20040;-94
2023/06/01 07:26:30;;;;;;;0.25;0.25;;;11.90;29.30;;;;;;4860784;29;20052;-94
2023/06/01 07:28:57;;;;;;;0.23;0.23;;;11.90;32.70;;;;;;4865991;29;20057;-94
2023/06/01 07:31:24;;;;;;;0.15;0.10;;;12.00;28.50;;;;;;4842375;29;20180;-92
2023/06/01 07:33:51;;;;;;;0.43;0.17;;;12.00;29.70;;;;;;4860783;29;20085;-93
2023/06/01 07:36:19;;;;;;;0.28;0.28;;;12.00;29.30;;;;;;4861871;29;20045;-93
2023/06/01 07:38:45;;;;;;;0.28;0.13;;;12.10;26.80;;;;;;4844288;29;20049;-88
2023/06/01 07:41:11;;;;;;;0.43;0.43;;;12.10;22.00;;;;;;4830744;29;20065;-94
2023/06/01 07:43:38;;;;;;;0.47;0.10;;;12.10;26.00;;;;;;4830215;29;20057;-93
2023/06/01 07:46:05;;;;;;;0.20;0.20;;;12.10;21.30;;;;;;4827006;29;20662;-91
2023/06/01 07:48:35;;;;;;;0.55;0.10;;;12.10;18.80;;;;;;4845910;29;20144;-91
2023/06/01 07:51:02;;;;;;;0.17;0.10;;;12.10;16.00;;;;;;4831293;29;20129;-92
2023/06/01 07:53:28;;;;;;;0.13;0.13;;;12.20;22.90;;;;;;4834905;29;20531;-90
2023/06/01 07:55:55;;;;;;;0.87;0.50;;;12.20;22.50;;;;;;4841672;29;20073;-95
2023/06/01 07:58:20;;;;;;;0.17;0.17;;;12.20;17.80;;;;;;4814839;29;20307;-93
2023/06/01 08:00:46;;;;;;;0.20;0.20;;;12.30;17.80;;;;;;4834393;29;20064;-91
2023/06/01 08:03:12;;;;;;;0.10;0.10;;;12.30;25.30;;;;;;4827040;29;20122;-88
2023/06/01 08:05:41;;;;;;;0.20;0.20;;;12.30;23.70;;;;;;4834698;29;20045;-90
2023/06/01 08:08:07;;;;;;;0.20;0.20;;;12.30;30.50;;;;;;4834869;29;20058;-94
2023/06/01 08:10:38;;;;;;;0.10;0.10;;;12.30;33.00;;;;;;4827908;29;20157;-89
2023/06/01 08:13:07;;;;;;;0.50;0.30;;;12.40;34.20;;;;;;4812827;29;20053;-95
2023/06/01 08:15:38;;;;;;;0.13;0.10;;;11.70;33.20;;;;;;4811045;29;20046;-91
2023/06/01 08:18:08;;;;;;;0.10;0.10;;;12.50;25.80;;;;;;4813700;29;20126;-91
2023/06/01 08:20:37;;;;;;;0.22;0.20;;;12.50;22.80;;;;;;4829935;29;20042;-92
2023/06/01 08:23:03;;;;;;;0.10;0.10;;;12.50;24.90;;;;;;4796157;29;20206;-90
2023/06/01 08:25:31;;;;;;;0.03;0.03;;;12.50;18.30;;;;;;4811702;29;20549;-88
2023/06/01 08:28:09;;;;;;;0.10;0.03;;;12.50;22.20;;;;;;4826644;29;20444;-89
2023/06/01 08:30:35;;;;;;;0.10;0.10;;;12.40;17.40;;;;;;4840909;29;20092;-89
2023/06/01 08:33:06;;;;;;;0.23;0.23;;;11.80;20.30;;;;;;4832409;29;20504;-87
2023/06/01 08:35:59;;;;;;;0.73;0.22;;;12.30;23.40;;;;;;4844360;29;20401;-89
2023/06/01 08:38:29;;;;;;;0.65;0.17;;;12.30;27.40;;;;;;4830698;29;20056;-90
2023/06/01 08:41:03;;;;;;;0.15;0.15;;;12.30;22.80;;;;;;4830081;29;20053;-90
2023/06/01 08:43:35;;;;;;;0.43;0.17;;;12.30;40.60;;;;;;4831101;29;20517;-89
2023/06/01 08:46:11;;;;;;;0.15;0.15;;;12.30;51.40;;;;;;4818339;29;20106;-90
2023/06/01 08:48:41;;;;;;;0.43;0.25;;;11.50;45.10;;;;;;4855481;29;20167;-89
2023/06/01 08:51:12;;;;;;;3.00;0.35;;;12.20;37.70;;;;;;4863058;29;20045;-89
2023/06/01 08:53:42;;;;;;;0.30;0.20;;;12.30;36.90;;;;;;4862722;29;20471;-89
2023/06/01 08:56:10;;;;;;;0.15;0.15;;;12.30;38.50;;;;;;4860017;29;20058;-91
2023/06/01 08:58:50;;;;;;;;;;;;;;;;;;;;;
2023/06/01 09:01:25;;;;;;;0.17;0.17;;;12.50;30.30;;;;;;4846420;29;20045;-91
2023/06/01 09:03:54;;;;;;;0.20;0.20;;;12.60;28.50;;;;;;4844476;29;20085;-90
2023/06/01 09:06:30;;;;;;;0.00;0.00;;;12.60;29.30;;;;;;4829057;29;20061;-91
2023/06/01 09:08:59;;;;;;;0.30;0.20;;;12.50;38.20;;;;;;4838252;29;20136;-90
2023/06/01 09:11:32;;;;;;;0.00;0.00;;;12.50;46.30;;;;;;4855840;29;20052;-93
2023/06/01 09:14:03;;;;;;;0.10;0.10;;;12.50;68.30;;;;;;4816134;29;20046;-90
2023/06/01 09:16:38;;;;;;;0.17;0.10;;;12.60;66.20;;;;;;4828996;29;20553;-90
2023/06/01 09:19:04;;;;;;;0.10;0.10;;;12.60;74.30;;;;;;4843961;29;20109;-90
2023/06/01 09:21:33;;;;;;;0.20;0.20;;;12.50;71.40;;;;;;4831055;29;20481;-92
2023/06/01 09:24:21;;;;;;;0.20;0.20;;;12.60;61.90;;;;;;4846172;29;20135;-85
2023/06/01 09:26:51;;;;;;;0.00;0.00;;;12.60;66.60;;;;;;4861780;29;20305;-86
2023/06/01 09:29:17;;;;;;;0.10;0.10;;;12.70;56.20;;;;;;4846274;29;20068;-86
2023/06/01 09:31:46;;;;;;;0.30;0.30;;;12.80;49.60;;;;;;4877360;29;20049;-87
2023/06/01 09:34:16;;;;;;;0.15;0.15;;;12.80;38.50;;;;;;4844009;29;20106;-87
2023/06/01 09:36:42;;;;;;;0.17;0.10;;;12.90;27.80;;;;;;4843615;29;20059;-88
2023/06/01 09:39:18;;;;;;;0.60;0.30;;;12.90;23.60;;;;;;4846612;29;20052;-88
2023/06/01 09:41:52;;;;;;;0.50;0.40;;;12.90;18.70;;;;;;4876743;29;20049;-88
2023/06/01 09:44:33;;;;;;;1.35;0.30;;;12.90;18.30;;;;;;4846706;29;20065;-86
2023/06/01 09:47:03;;;;;;;0.22;0.22;;;12.90;22.50;;;;;;4846093;29;20528;-89
2023/06/01 09:49:31;;;;;;;0.85;0.63;;;12.90;14.40;;;;;;4864924;29;20049;-86
2023/06/01 09:52:06;;;;;;;0.35;0.35;;;12.90;17.50;;;;;;4830231;29;20054;-87
2023/06/01 09:54:37;;;;;;;0.43;0.43;;;12.90;15.30;;;;;;4851996;29;20386;-87
2023/06/01 09:57:04;;;;;;;1.02;0.63;;;12.80;9.60;;;;;;4862048;29;20072;-87
2023/06/01 09:59:46;;;;;;;0.28;0.28;;;12.80;1.80;;;;;;4861905;29;20091;-88
2023/06/01 10:02:23;;;;;;;0.60;0.60;;;12.70;1.00;;;;;;4878903;29;20049;-88
2023/06/01 10:04:52;;;;;;;0.60;0.60;;;12.80;1.00;;;;;;4846782;29;20073;-87
2023/06/01 10:07:19;;;;;;;0.40;0.40;;;12.80;1.00;;;;;;4848476;29;20544;-87
2023/06/01 10:09:52;;;;;;;2.83;0.35;;;12.80;1.00;;;;;;4844880;29;20050;-88
2023/06/01 10:12:18;;;;;;;0.25;0.25;;;12.90;1.00;;;;;;4855307;29;20488;-88
2023/06/01 10:14:48;;;;;;;0.22;0.22;;;12.90;1.00;;;;;;4843815;29;20057;-87
2023/06/01 10:17:16;;;;;;;0.40;0.40;;;12.90;1.00;;;;;;4847409;29;20049;-87
2023/06/01 10:19:42;;;;;;;0.88;0.40;;;12.90;1.00;;;;;;4847237;29;20057;-86
2023/06/01 10:22:10;;;;;;;0.40;0.40;;;12.90;1.00;;;;;;4831418;29;20140;-87
2023/06/01 10:24:42;;;;;;;0.40;0.40;;;12.90;1.00;;;;;;4847460;29;20061;-87
2023/06/01 10:31:27;;;;;;;0.30;0.30;;;12.90;1.00;;;;;;4849114;29;20076;-87
2023/06/01 10:33:55;;;;;;;0.20;0.20;;;13.00;1.00;;;;;;4813784;29;20125;-87
2023/06/01 10:36:26;;;;;;;0.60;0.57;;;13.20;1.00;;;;;;4826926;29;20050;-91
2023/06/01 10:39:24;;;;;;;0.38;0.38;;;13.10;1.00;;;;;;4827838;29;20505;-86
2023/06/01 10:41:50;;;;;;;0.52;0.50;;;13.20;1.00;;;;;;4843886;29;20050;-87
2023/06/01 10:44:38;;;;;;;0.60;0.60;;;13.10;1.00;;;;;;4822661;29;20130;-86
2023/06/01 10:47:23;;;;;;;0.32;0.32;;;13.10;1.00;;;;;;4812590;29;20862;-84
2023/06/01 10:49:49;;;;;;;0.20;0.20;;;13.20;1.00;;;;;;4826257;29;20475;-83
2023/06/01 10:52:28;;;;;;;0.70;0.25;;;13.20;1.00;;;;;;4827691;29;20441;-83
2023/06/01 10:55:14;;;;;;;0.20;0.20;;;13.30;1.00;;;;;;4837886;29;20062;-84
2023/06/01 10:57:42;;;;;;;0.28;0.28;;;13.30;1.00;;;;;;4844799;29;20053;-84
2023/06/01 11:00:18;;;;;;;0.68;0.25;;;13.30;1.00;;;;;;4845951;29;20140;-84
2023/06/01 11:02:48;;;;;;;0.47;0.47;;;13.30;1.00;;;;;;4833071;29;20061;-83
2023/06/01 11:05:50;;;;;;;0.30;0.30;;;13.40;1.00;;;;;;4812344;29;20058;-85
2023/06/01 11:08:29;;;;;;;0.17;0.17;;;13.50;1.00;;;;;;4827924;29;20452;-84
2023/06/01 11:11:00;;;;;;;0.40;0.40;;;13.60;1.00;;;;;;4827166;29;20066;-92
2023/06/01 11:13:34;;;;;;;0.73;0.73;;;13.70;1.00;;;;;;4837119;29;20049;-85
2023/06/01 11:16:21;;;;;;;0.73;0.68;;;13.70;1.00;;;;;;4834055;29;20082;-83
2023/06/01 11:18:58;;;;;;;0.30;0.20;;;13.80;1.00;;;;;;4818844;29;20065;-85
2023/06/01 11:21:33;;;;;;;0.47;0.47;;;14.00;1.00;;;;;;4836875;29;20045;-86
2023/06/01 11:24:01;;;;;;;0.20;0.20;;;13.80;1.00;;;;;;4830993;29;20054;-86
2023/06/01 11:26:47;;;;;;;0.20;0.20;;;13.80;1.00;;;;;;4830512;29;20046;-85
2023/06/01 11:29:17;;;;;;;0.70;0.70;;;13.80;1.00;;;;;;4852941;29;20038;-83
2023/06/01 11:32:05;;;;;;;0.30;0.30;;;14.00;1.00;;;;;;4859888;29;20057;-83
2023/06/01 11:34:34;;;;;;;0.20;0.20;;;14.10;1.00;;;;;;4850584;29;20401;-86
2023/06/01 11:37:01;;;;;;;0.30;0.30;;;14.10;1.00;;;;;;4837924;29;20561;-87
2023/06/01 11:39:30;;;;;;;0.38;0.38;;;14.20;1.00;;;;;;4845611;29;20051;-86
2023/06/01 11:42:05;;;;;;;0.20;0.20;;;14.20;1.00;;;;;;4838556;29;20056;-85
2023/06/01 11:44:36;;;;;;;0.38;0.38;;;14.20;1.00;;;;;;4849103;29;20045;-84
2023/06/01 11:47:04;;;;;;;0.75;0.52;;;14.20;1.00;;;;;;4844584;29;20046;-85
2023/06/01 11:49:29;;;;;;;0.40;0.30;;;14.10;1.00;;;;;;4852404;29;20096;-85
2023/06/01 11:51:56;;;;;;;0.40;0.40;;;14.10;1.00;;;;;;4846537;29;20164;-84
2023/06/01 11:54:29;;;;;;;0.25;0.25;;;14.10;1.00;;;;;;4853924;29;20060;-85
2023/06/01 11:56:55;;;;;;;0.82;0.82;;;14.00;1.00;;;;;;4833847;29;20049;-84
2023/06/01 11:59:22;;;;;;;0.40;0.40;;;14.00;1.00;;;;;;4863342;29;20077;-84
2023/06/01 12:01:49;;;;;;;;;;;14.00;1.00;;;;;;4849041;29;20124;-84
2023/06/01 12:04:17;;;;;;;0.30;0.30;;;14.00;1.00;;;;;;4860800;29;19947;-85
2023/06/01 12:06:43;;;;;;;0.30;0.30;;;14.00;1.00;;;;;;4824062;29;20132;-86
2023/06/01 12:09:09;;;;;;;0.40;0.40;;;14.10;1.00;;;;;;4858825;29;20063;-84
2023/06/01 12:11:35;;;;;;;0.30;0.30;;;14.00;1.00;;;;;;4839942;29;20042;-85
2023/06/01 12:14:05;;;;;;;0.57;0.50;;;14.10;1.00;;;;;;4849701;29;20118;-87
2023/06/01 12:16:53;;;;;;;0.20;0.20;;;14.20;1.00;;;;;;4835259;29;20489;-86
2023/06/01 12:19:20;;;;;;;0.40;0.40;;;14.30;1.00;;;;;;4839561;29;20049;-86
2023/06/01 12:21:50;;;;;;;0.32;0.32;;;14.40;1.00;;;;;;4863093;29;20136;-86
2023/06/01 12:24:28;;;;;;;0.17;0.17;;;14.40;1.00;;;;;;4862897;29;20052;-85
2023/06/01 12:26:54;;;;;;;0.63;0.30;;;14.50;99.90;;;;;;4862439;29;20083;-86
2023/06/01 12:29:38;;;;;;;0.38;0.30;;;14.60;1.00;;;;;;4863142;29;20140;-86
2023/06/01 12:32:05;;;;;;;0.10;0.10;;;14.70;99.90;;;;;;4847279;29;20059;-86
2023/06/01 12:34:31;;;;;;;0.40;0.40;;;14.70;1.00;;;;;;4862952;29;20084;-86
2023/06/01 12:36:57;;;;;;;0.20;0.20;;;14.70;1.00;;;;;;4846807;29;20090;-86
2023/06/01 12:39:36;;;;;;;0.25;0.25;;;15.30;1.00;;;;;;4862369;29;20149;-86
2023/06/01 12:42:05;;;;;;;0.30;0.30;;;14.80;99.90;;;;;;4861944;29;20556;-85
2023/06/01 12:44:32;;;;;;;0.50;0.40;;;14.80;99.90;;;;;;4847442;29;20052;-86
2023/06/01 12:46:59;;;;;;;0.70;0.68;;;14.70;1.00;;;;;;4859464;29;20501;-85
2023/06/01 12:49:25;;;;;;;1.65;0.77;;;14.70;1.00;;;;;;4862615;29;20057;-85
2023/06/01 12:51:50;;;;;;;0.50;0.50;;;14.60;1.00;;;;;;4862022;29;20144;-85
2023/06/01 12:54:17;;;;;;;0.35;0.35;;;14.50;99.90;;;;;;4847365;29;20089;-86
2023/06/01 12:56:44;;;;;;;0.70;0.70;;;14.50;99.90;;;;;;4847163;29;20053;-86
2023/06/01 12:59:10;;;;;;;;;;;14.40;99.90;;;;;;4847172;29;20095;-86
2023/06/01 13:01:36;;;;;;;0.28;0.28;;;14.40;99.90;;;;;;4847266;29;19924;-86
2023/06/01 13:04:07;;;;;;;0.30;0.30;;;14.40;1.00;;;;;;4847083;29;20045;-86
2023/06/01 13:06:34;;;;;;;0.40;0.40;;;14.30;1.00;;;;;;4862464;29;20412;-86
2023/06/01 13:09:00;;;;;;;0.50;0.50;;;14.30;1.00;;;;;;4846707;29;20526;-86
2023/06/01 13:11:27;;;;;;;;;;;14.30;1.00;;;;;;4862918;29;20492;-86
2023/06/01 13:13:53;;;;;;;2.17;0.52;;;14.30;1.00;;;;;;4862020;29;19970;-86
2023/06/01 13:16:19;;;;;;;0.10;0.10;;;14.40;1.00;;;;;;4860682;29;20436;-86
2023/06/01 13:18:47;;;;;;;0.35;0.35;;;14.30;1.00;;;;;;4829678;29;20081;-86
2023/06/01 13:21:14;;;;;;;0.90;0.40;;;14.30;1.00;;;;;;4843310;29;20114;-86
2023/06/01 13:23:41;;;;;;;0.30;0.30;;;14.30;1.00;;;;;;4843965;29;20489;-85
2023/06/01 13:26:07;;;;;;;0.32;0.32;;;14.40;1.00;;;;;;4828462;29;20050;-86
2023/06/01 13:28:33;;;;;;;1.05;0.60;;;14.40;1.00;;;;;;4813851;29;20060;-85
2023/06/01 13:30:59;;;;;;;0.38;0.38;;;14.30;1.00;;;;;;4828150;29;20057;-86
2023/06/01 13:33:25;;;;;;;0.20;0.20;;;14.30;1.00;;;;;;4828654;29;20105;-85